createdAt,value
2018-12-10T00:00:07.454Z,8.03
2018-12-10T00:00:48.003Z,8.06
2018-12-10T00:01:28.556Z,7.94
2018-12-10T00:02:09.114Z,8
2018-12-10T00:02:49.678Z,7.95
2018-12-10T00:03:30.261Z,7.98
2018-12-10T00:04:10.896Z,8.06
2018-12-10T00:04:51.460Z,8.05
2018-12-10T00:05:32.039Z,8.06
2018-12-10T00:06:12.691Z,8.01
2018-12-10T00:06:53.325Z,8.09
2018-12-10T00:07:34.064Z,8.08
2018-12-10T00:08:14.683Z,8.05
2018-12-10T00:08:55.227Z,8.05
2018-12-10T00:09:35.787Z,8.03
2018-12-10T00:10:16.347Z,8.05
2018-12-10T00:10:56.911Z,8.06
2018-12-10T00:11:37.504Z,8.06
2018-12-10T00:12:18.077Z,7.91
2018-12-10T00:12:58.629Z,7.94
2018-12-10T00:13:39.212Z,7.91
2018-12-10T00:14:19.784Z,7.87
2018-12-10T00:15:00.378Z,7.88
2018-12-10T00:15:40.930Z,7.82
2018-12-10T00:16:21.519Z,7.85
2018-12-10T00:17:02.068Z,7.88
2018-12-10T00:17:42.637Z,7.97
2018-12-10T00:18:23.198Z,7.97
2018-12-10T00:19:03.788Z,7.95
2018-12-10T00:19:44.305Z,7.83
2018-12-10T00:20:24.893Z,7.87
2018-12-10T00:21:05.427Z,7.93
2018-12-10T00:21:45.987Z,8
2018-12-10T00:22:26.535Z,7.94
2018-12-10T00:23:07.098Z,7.87
2018-12-10T00:23:47.661Z,7.94
2018-12-10T00:24:28.222Z,7.97
2018-12-10T00:25:08.785Z,7.94
2018-12-10T00:25:49.381Z,7.88
2018-12-10T00:26:29.947Z,7.85
2018-12-10T00:27:11.605Z,7.93
2018-12-10T00:27:51.020Z,7.93
2018-12-10T00:28:31.585Z,7.91
2018-12-10T00:29:12.147Z,7.79
2018-12-10T00:29:52.705Z,7.79
2018-12-10T00:30:33.267Z,7.9
2018-12-10T00:31:13.830Z,7.8
2018-12-10T00:31:54.388Z,7.75
2018-12-10T00:32:34.947Z,7.77
2018-12-10T00:33:15.518Z,7.77
2018-12-10T00:33:56.076Z,7.85
2018-12-10T00:34:36.694Z,7.77
2018-12-10T00:35:17.349Z,7.79
2018-12-10T00:35:57.912Z,7.9
2018-12-10T00:36:38.509Z,7.82
2018-12-10T00:37:19.061Z,7.87
2018-12-10T00:37:59.601Z,7.9
2018-12-10T00:38:40.150Z,7.82
2018-12-10T00:39:20.744Z,7.83
2018-12-10T00:40:01.325Z,7.91
2018-12-10T00:40:41.882Z,7.82
2018-12-10T00:41:22.455Z,7.83
2018-12-10T00:42:03.010Z,7.82
2018-12-10T00:42:43.568Z,7.87
2018-12-10T00:43:24.125Z,7.82
2018-12-10T00:44:04.703Z,7.85
2018-12-10T00:44:45.245Z,7.77
2018-12-10T00:45:25.855Z,7.72
2018-12-10T00:46:06.383Z,7.75
2018-12-10T00:46:46.943Z,7.85
2018-12-10T00:47:27.500Z,7.75
2018-12-10T00:48:08.069Z,7.72
2018-12-10T00:48:48.624Z,7.85
2018-12-10T00:49:29.178Z,7.88
2018-12-10T00:50:09.741Z,7.76
2018-12-10T00:50:50.302Z,7.8
2018-12-10T00:51:30.882Z,7.9
2018-12-10T00:52:11.445Z,7.9
2018-12-10T00:52:52.013Z,7.9
2018-12-10T00:53:32.576Z,7.87
2018-12-10T00:54:13.139Z,7.9
2018-12-10T00:54:53.700Z,7.9
2018-12-10T00:55:34.277Z,7.91
2018-12-10T00:56:15.081Z,7.87
2018-12-10T00:56:55.632Z,7.9
2018-12-10T00:57:36.207Z,7.77
2018-12-10T00:58:16.785Z,7.83
2018-12-10T00:58:57.357Z,7.83
2018-12-10T00:59:37.919Z,7.76
2018-12-10T01:00:18.495Z,7.82
2018-12-10T01:00:59.040Z,7.76
2018-12-10T01:01:41.243Z,7.76
2018-12-10T01:02:20.177Z,7.73
2018-12-10T01:03:00.763Z,7.72
2018-12-10T01:03:41.358Z,7.72
2018-12-10T01:04:21.889Z,7.79
2018-12-10T01:05:02.480Z,7.75
2018-12-10T01:05:43.029Z,7.75
2018-12-10T01:06:23.591Z,7.69
2018-12-10T01:07:04.150Z,7.75
2018-12-10T01:07:44.721Z,7.75
2018-12-10T01:08:25.285Z,7.83
2018-12-10T01:09:05.849Z,7.8
2018-12-10T01:09:49.289Z,7.77
2018-12-10T01:10:29.836Z,7.77
2018-12-10T01:11:10.395Z,7.8
2018-12-10T01:11:50.955Z,7.77
2018-12-10T01:12:31.518Z,7.82
2018-12-10T01:13:12.091Z,7.87
2018-12-10T01:13:52.645Z,7.79
2018-12-10T01:14:33.271Z,7.8
2018-12-10T01:15:13.866Z,7.8
2018-12-10T01:15:54.423Z,7.87
2018-12-10T01:16:34.976Z,7.75
2018-12-10T01:17:15.550Z,7.76
2018-12-10T01:17:56.125Z,7.72
2018-12-10T01:18:36.733Z,7.75
2018-12-10T01:19:17.266Z,7.73
2018-12-10T01:19:57.826Z,7.72
2018-12-10T01:20:38.389Z,7.72
2018-12-10T01:21:18.956Z,7.66
2018-12-10T01:21:59.533Z,7.66
2018-12-10T01:22:40.097Z,7.67
2018-12-10T01:23:20.654Z,7.6
2018-12-10T01:24:01.213Z,7.67
2018-12-10T01:24:41.785Z,7.6
2018-12-10T01:25:22.358Z,7.58
2018-12-10T01:26:02.906Z,7.66
2018-12-10T01:26:43.468Z,7.66
2018-12-10T01:27:24.004Z,7.66
2018-12-10T01:28:04.566Z,7.61
2018-12-10T01:28:45.162Z,7.61
2018-12-10T01:29:25.785Z,7.61
2018-12-10T01:30:06.297Z,7.6
2018-12-10T01:30:46.917Z,7.57
2018-12-10T01:31:27.510Z,7.61
2018-12-10T01:32:08.071Z,7.63
2018-12-10T01:32:48.616Z,7.66
2018-12-10T01:33:29.165Z,7.66
2018-12-10T01:34:09.713Z,7.67
2018-12-10T01:34:50.272Z,7.69
2018-12-10T01:35:30.849Z,7.63
2018-12-10T01:36:11.395Z,7.66
2018-12-10T01:36:51.950Z,7.61
2018-12-10T01:37:32.495Z,7.66
2018-12-10T01:38:13.067Z,7.66
2018-12-10T01:38:53.637Z,7.66
2018-12-10T01:39:34.196Z,7.67
2018-12-10T01:40:14.742Z,7.61
2018-12-10T01:40:55.321Z,7.66
2018-12-10T01:41:35.894Z,7.61
2018-12-10T01:42:16.433Z,7.61
2018-12-10T01:42:56.999Z,7.63
2018-12-10T01:43:37.570Z,7.63
2018-12-10T01:44:18.108Z,7.63
2018-12-10T01:44:58.661Z,7.63
2018-12-10T01:45:39.223Z,7.67
2018-12-10T01:46:19.787Z,7.6
2018-12-10T01:47:00.354Z,7.61
2018-12-10T01:47:40.928Z,7.57
2018-12-10T01:48:21.478Z,7.66
2018-12-10T01:49:02.033Z,7.66
2018-12-10T01:49:42.604Z,7.6
2018-12-10T01:50:23.153Z,7.6
2018-12-10T01:51:03.818Z,7.6
2018-12-10T01:51:44.275Z,7.58
2018-12-10T01:52:24.971Z,7.6
2018-12-10T01:53:05.538Z,7.61
2018-12-10T01:53:46.092Z,7.66
2018-12-10T01:54:26.641Z,7.6
2018-12-10T01:55:07.282Z,7.54
2018-12-10T01:55:47.863Z,7.58
2018-12-10T01:56:28.422Z,7.57
2018-12-10T01:57:08.967Z,7.6
2018-12-10T01:57:49.512Z,7.66
2018-12-10T01:58:30.072Z,7.58
2018-12-10T01:59:10.630Z,7.66
2018-12-10T01:59:51.189Z,7.66
2018-12-10T02:00:31.752Z,7.51
2018-12-10T02:01:12.330Z,7.56
2018-12-10T02:01:52.873Z,7.56
2018-12-10T02:02:33.431Z,7.63
2018-12-10T02:03:13.995Z,7.58
2018-12-10T02:03:54.563Z,7.56
2018-12-10T02:04:35.129Z,7.54
2018-12-10T02:05:15.672Z,7.63
2018-12-10T02:05:56.225Z,7.67
2018-12-10T02:06:36.779Z,7.54
2018-12-10T02:07:17.334Z,7.56
2018-12-10T02:07:57.906Z,7.47
2018-12-10T02:08:38.495Z,7.47
2018-12-10T02:09:19.037Z,7.48
2018-12-10T02:09:59.600Z,7.42
2018-12-10T02:10:40.153Z,7.45
2018-12-10T02:11:20.707Z,7.51
2018-12-10T02:12:01.256Z,7.51
2018-12-10T02:12:41.827Z,7.45
2018-12-10T02:13:22.387Z,7.56
2018-12-10T02:14:02.956Z,7.56
2018-12-10T02:14:43.507Z,7.5
2018-12-10T02:15:24.064Z,7.53
2018-12-10T02:16:04.650Z,7.48
2018-12-10T02:16:45.222Z,7.47
2018-12-10T02:17:25.768Z,7.54
2018-12-10T02:18:06.342Z,7.51
2018-12-10T02:18:46.906Z,7.53
2018-12-10T02:19:27.478Z,7.57
2018-12-10T02:20:08.041Z,7.56
2018-12-10T02:20:48.600Z,7.53
2018-12-10T02:21:29.166Z,7.53
2018-12-10T02:22:09.732Z,7.47
2018-12-10T02:22:50.292Z,7.5
2018-12-10T02:23:30.848Z,7.47
2018-12-10T02:24:11.416Z,7.51
2018-12-10T02:24:51.998Z,7.5
2018-12-10T02:25:32.548Z,7.47
2018-12-10T02:26:13.138Z,7.48
2018-12-10T02:26:53.700Z,7.48
2018-12-10T02:27:34.259Z,7.47
2018-12-10T02:28:14.808Z,7.4
2018-12-10T02:28:55.370Z,7.4
2018-12-10T02:29:35.927Z,7.42
2018-12-10T02:30:16.490Z,7.38
2018-12-10T02:30:57.065Z,7.42
2018-12-10T02:31:37.616Z,7.4
2018-12-10T02:32:18.167Z,7.54
2018-12-10T02:32:58.739Z,7.47
2018-12-10T02:33:39.295Z,7.54
2018-12-10T02:34:19.880Z,7.57
2018-12-10T02:35:00.423Z,7.48
2018-12-10T02:35:40.980Z,7.54
2018-12-10T02:36:21.530Z,7.48
2018-12-10T02:37:02.079Z,7.51
2018-12-10T02:37:42.630Z,7.39
2018-12-10T02:38:23.183Z,7.45
2018-12-10T02:39:03.751Z,7.4
2018-12-10T02:39:44.293Z,7.42
2018-12-10T02:40:24.871Z,7.36
2018-12-10T02:41:05.468Z,7.35
2018-12-10T02:41:46.020Z,7.33
2018-12-10T02:42:26.597Z,7.39
2018-12-10T02:43:07.157Z,7.45
2018-12-10T02:43:47.773Z,7.47
2018-12-10T02:44:28.333Z,7.4
2018-12-10T02:45:08.885Z,7.42
2018-12-10T02:45:49.457Z,7.39
2018-12-10T02:46:30.011Z,7.47
2018-12-10T02:47:10.595Z,7.4
2018-12-10T02:47:51.166Z,7.47
2018-12-10T02:48:31.737Z,7.39
2018-12-10T02:49:12.330Z,7.4
2018-12-10T02:49:52.887Z,7.4
2018-12-10T02:50:33.454Z,7.45
2018-12-10T02:51:14.007Z,7.35
2018-12-10T02:51:54.557Z,7.35
2018-12-10T02:52:35.189Z,7.35
2018-12-10T02:53:15.675Z,7.33
2018-12-10T02:53:56.268Z,7.24
2018-12-10T02:54:36.866Z,7.32
2018-12-10T02:55:17.448Z,7.29
2018-12-10T02:55:58.267Z,7.31
2018-12-10T02:56:38.870Z,7.24
2018-12-10T02:57:19.456Z,7.23
2018-12-10T02:57:59.999Z,7.24
2018-12-10T02:58:40.614Z,7.25
2018-12-10T02:59:21.172Z,7.36
2018-12-10T03:00:01.870Z,7.25
2018-12-10T03:00:42.318Z,7.17
2018-12-10T03:01:22.868Z,7.2
2018-12-10T03:02:03.429Z,7.2
2018-12-10T03:02:43.976Z,7.23
2018-12-10T03:03:24.534Z,7.24
2018-12-10T03:04:05.093Z,7.17
2018-12-10T03:04:45.659Z,7.21
2018-12-10T03:05:26.221Z,7.14
2018-12-10T03:06:06.782Z,7.1
2018-12-10T03:06:47.340Z,7.13
2018-12-10T03:07:27.924Z,7.1
2018-12-10T03:08:08.472Z,7.07
2018-12-10T03:08:49.029Z,7.14
2018-12-10T03:09:29.585Z,7.13
2018-12-10T03:10:10.191Z,7.15
2018-12-10T03:10:50.780Z,7.18
2018-12-10T03:11:31.333Z,7.18
2018-12-10T03:12:11.912Z,7.21
2018-12-10T03:12:52.472Z,7.23
2018-12-10T03:13:33.061Z,7.17
2018-12-10T03:14:13.628Z,7.2
2018-12-10T03:14:54.198Z,7.17
2018-12-10T03:15:34.748Z,7.2
2018-12-10T03:16:15.304Z,7.15
2018-12-10T03:16:55.862Z,7.17
2018-12-10T03:17:36.435Z,7.14
2018-12-10T03:18:16.980Z,7.2
2018-12-10T03:18:57.546Z,7.24
2018-12-10T03:19:38.115Z,7.18
2018-12-10T03:20:18.704Z,7.21
2018-12-10T03:20:59.242Z,7.18
2018-12-10T03:21:39.800Z,7.2
2018-12-10T03:22:20.381Z,7.18
2018-12-10T03:23:00.936Z,7.28
2018-12-10T03:23:41.503Z,7.28
2018-12-10T03:24:22.106Z,7.31
2018-12-10T03:25:02.662Z,7.31
2018-12-10T03:25:43.218Z,7.24
2018-12-10T03:26:23.776Z,7.28
2018-12-10T03:27:04.337Z,7.32
2018-12-10T03:27:44.891Z,7.33
2018-12-10T03:28:25.465Z,7.32
2018-12-10T03:29:06.023Z,7.38
2018-12-10T03:29:46.586Z,7.33
2018-12-10T03:30:27.147Z,7.35
2018-12-10T03:31:07.725Z,7.32
2018-12-10T03:31:48.274Z,7.33
2018-12-10T03:32:28.854Z,7.31
2018-12-10T03:33:09.410Z,7.29
2018-12-10T03:33:49.972Z,7.29
2018-12-10T03:34:30.519Z,7.29
2018-12-10T03:35:11.108Z,7.32
2018-12-10T03:35:51.665Z,7.31
2018-12-10T03:36:32.246Z,7.33
2018-12-10T03:37:12.947Z,7.31
2018-12-10T03:37:53.514Z,7.33
2018-12-10T03:38:34.105Z,7.29
2018-12-10T03:39:14.660Z,7.24
2018-12-10T03:39:55.201Z,7.24
2018-12-10T03:40:35.767Z,7.33
2018-12-10T03:41:16.359Z,7.29
2018-12-10T03:41:56.924Z,7.32
2018-12-10T03:42:37.478Z,7.31
2018-12-10T03:43:18.036Z,7.17
2018-12-10T03:43:58.607Z,7.17
2018-12-10T03:44:39.182Z,7.2
2018-12-10T03:45:19.746Z,7.21
2018-12-10T03:46:00.297Z,7.2
2018-12-10T03:46:40.852Z,7.15
2018-12-10T03:47:21.408Z,7.18
2018-12-10T03:48:01.985Z,7.18
2018-12-10T03:48:42.611Z,7.31
2018-12-10T03:49:23.237Z,7.2
2018-12-10T03:50:03.784Z,7.25
2018-12-10T03:50:44.340Z,7.21
2018-12-10T03:51:24.917Z,7.21
2018-12-10T03:52:05.494Z,7.23
2018-12-10T03:52:46.062Z,7.23
2018-12-10T03:53:26.626Z,7.15
2018-12-10T03:54:07.207Z,7.24
2018-12-10T03:54:47.749Z,7.13
2018-12-10T03:55:28.323Z,7.21
2018-12-10T03:56:08.872Z,7.18
2018-12-10T03:56:49.439Z,7.15
2018-12-10T03:57:30.016Z,7.23
2018-12-10T03:58:10.602Z,7.18
2018-12-10T03:58:51.172Z,7.23
2018-12-10T03:59:31.726Z,7.21
2018-12-10T04:00:12.290Z,7.21
2018-12-10T04:00:52.859Z,7.17
2018-12-10T04:01:33.422Z,7.21
2018-12-10T04:02:13.979Z,7.2
2018-12-10T04:02:54.562Z,7.2
2018-12-10T04:03:35.124Z,7.18
2018-12-10T04:04:15.685Z,7.2
2018-12-10T04:04:56.241Z,7.18
2018-12-10T04:05:36.799Z,7.15
2018-12-10T04:06:17.365Z,7.17
2018-12-10T04:06:57.940Z,7.17
2018-12-10T04:07:38.489Z,7.23
2018-12-10T04:08:19.047Z,7.23
2018-12-10T04:08:59.600Z,7.25
2018-12-10T04:09:40.206Z,7.2
2018-12-10T04:10:20.772Z,7.18
2018-12-10T04:11:01.333Z,7.23
2018-12-10T04:11:41.896Z,7.28
2018-12-10T04:12:22.458Z,7.2
2018-12-10T04:13:03.025Z,7.24
2018-12-10T04:13:43.582Z,7.17
2018-12-10T04:14:24.144Z,7.18
2018-12-10T04:15:04.698Z,7.21
2018-12-10T04:15:45.278Z,7.24
2018-12-10T04:16:25.839Z,7.17
2018-12-10T04:17:06.420Z,7.31
2018-12-10T04:17:46.981Z,7.32
2018-12-10T04:18:27.544Z,7.31
2018-12-10T04:19:08.140Z,7.31
2018-12-10T04:19:48.702Z,7.29
2018-12-10T04:20:29.265Z,7.33
2018-12-10T04:21:09.812Z,7.25
2018-12-10T04:21:50.362Z,7.28
2018-12-10T04:22:30.922Z,7.25
2018-12-10T04:23:11.488Z,7.2
2018-12-10T04:23:52.050Z,7.24
2018-12-10T04:24:32.603Z,7.23
2018-12-10T04:25:13.189Z,7.18
2018-12-10T04:25:53.741Z,7.21
2018-12-10T04:26:34.296Z,7.2
2018-12-10T04:27:14.874Z,7.32
2018-12-10T04:27:55.418Z,7.28
2018-12-10T04:28:35.995Z,7.29
2018-12-10T04:29:16.555Z,7.17
2018-12-10T04:29:57.108Z,7.21
2018-12-10T04:30:37.664Z,7.24
2018-12-10T04:31:18.225Z,7.2
2018-12-10T04:31:58.793Z,7.31
2018-12-10T04:32:39.355Z,7.35
2018-12-10T04:33:19.913Z,7.24
2018-12-10T04:34:00.475Z,7.25
2018-12-10T04:34:41.041Z,7.31
2018-12-10T04:35:21.606Z,7.35
2018-12-10T04:36:02.166Z,7.31
2018-12-10T04:36:42.722Z,7.36
2018-12-10T04:37:23.263Z,7.28
2018-12-10T04:38:03.840Z,7.29
2018-12-10T04:38:44.419Z,7.33
2018-12-10T04:39:25.003Z,7.31
2018-12-10T04:40:05.568Z,7.25
2018-12-10T04:40:46.115Z,7.29
2018-12-10T04:41:26.684Z,7.25
2018-12-10T04:42:07.244Z,7.33
2018-12-10T04:42:47.806Z,7.33
2018-12-10T04:43:28.389Z,7.29
2018-12-10T04:44:08.954Z,7.32
2018-12-10T04:44:49.508Z,7.21
2018-12-10T04:45:30.061Z,7.32
2018-12-10T04:46:10.619Z,7.28
2018-12-10T04:46:51.192Z,7.33
2018-12-10T04:47:31.772Z,7.24
2018-12-10T04:48:12.313Z,7.25
2018-12-10T04:48:52.874Z,7.29
2018-12-10T04:49:33.432Z,7.21
2018-12-10T04:50:14.014Z,7.33
2018-12-10T04:50:54.579Z,7.31
2018-12-10T04:51:35.142Z,7.21
2018-12-10T04:52:15.701Z,7.21
2018-12-10T04:52:56.258Z,7.18
2018-12-10T04:53:36.834Z,7.36
2018-12-10T04:54:17.402Z,7.24
2018-12-10T04:54:57.949Z,7.32
2018-12-10T04:55:38.513Z,7.31
2018-12-10T04:56:19.281Z,7.33
2018-12-10T04:56:59.833Z,7.25
2018-12-10T04:57:40.407Z,7.28
2018-12-10T04:58:20.966Z,7.32
2018-12-10T04:59:01.536Z,7.31
2018-12-10T04:59:42.083Z,7.2
2018-12-10T05:00:22.637Z,7.18
2018-12-10T05:01:03.198Z,7.17
2018-12-10T05:01:43.760Z,7.21
2018-12-10T05:02:24.356Z,7.23
2018-12-10T05:03:05.026Z,7.2
2018-12-10T05:03:45.483Z,7.28
2018-12-10T05:04:26.041Z,7.2
2018-12-10T05:05:06.626Z,7.24
2018-12-10T05:05:47.158Z,7.28
2018-12-10T05:06:27.719Z,7.18
2018-12-10T05:07:08.295Z,7.17
2018-12-10T05:07:48.905Z,7.28
2018-12-10T05:08:29.464Z,7.2
2018-12-10T05:09:10.031Z,7.29
2018-12-10T05:09:50.586Z,7.18
2018-12-10T05:10:31.151Z,7.17
2018-12-10T05:11:11.705Z,7.23
2018-12-10T05:11:52.280Z,7.2
2018-12-10T05:12:32.853Z,7.23
2018-12-10T05:13:13.415Z,7.15
2018-12-10T05:13:53.975Z,7.24
2018-12-10T05:14:34.539Z,7.23
2018-12-10T05:15:15.086Z,7.21
2018-12-10T05:15:55.647Z,7.13
2018-12-10T05:16:36.217Z,7.31
2018-12-10T05:17:16.768Z,7.17
2018-12-10T05:17:57.332Z,7.18
2018-12-10T05:18:37.892Z,7.24
2018-12-10T05:19:18.464Z,7.24
2018-12-10T05:19:59.055Z,7.2
2018-12-10T05:20:39.604Z,7.21
2018-12-10T05:21:20.163Z,7.21
2018-12-10T05:22:00.742Z,7.31
2018-12-10T05:22:41.315Z,7.2
2018-12-10T05:23:21.877Z,7.18
2018-12-10T05:24:02.430Z,7.15
2018-12-10T05:24:42.982Z,7.21
2018-12-10T05:25:23.544Z,7.17
2018-12-10T05:26:04.098Z,7.21
2018-12-10T05:26:44.683Z,7.21
2018-12-10T05:27:25.251Z,7.17
2018-12-10T05:28:05.837Z,7.21
2018-12-10T05:28:46.394Z,7.24
2018-12-10T05:29:27.001Z,7.15
2018-12-10T05:30:07.645Z,7.21
2018-12-10T05:30:48.201Z,7.24
2018-12-10T05:31:28.767Z,7.21
2018-12-10T05:32:09.340Z,7.17
2018-12-10T05:32:49.923Z,7.18
2018-12-10T05:33:30.489Z,7.2
2018-12-10T05:34:11.347Z,7.13
2018-12-10T05:34:51.618Z,7.18
2018-12-10T05:35:32.210Z,7.17
2018-12-10T05:36:12.774Z,7.21
2018-12-10T05:36:53.323Z,7.18
2018-12-10T05:37:33.869Z,7.2
2018-12-10T05:38:14.433Z,7.25
2018-12-10T05:38:54.987Z,7.13
2018-12-10T05:39:35.765Z,7.23
2018-12-10T05:40:16.388Z,7.17
2018-12-10T05:40:57.002Z,7.18
2018-12-10T05:41:38.462Z,7.21
2018-12-10T05:42:19.181Z,7.21
2018-12-10T05:43:00.005Z,7.21
2018-12-10T05:43:40.967Z,7.17
2018-12-10T05:44:21.622Z,7.15
2018-12-10T05:45:02.312Z,7.2
2018-12-10T05:45:42.891Z,7.23
2018-12-10T05:46:23.578Z,7.28
2018-12-10T05:47:04.298Z,7.24
2018-12-10T05:47:45.258Z,7.23
2018-12-10T05:48:27.053Z,7.28
2018-12-10T05:49:07.855Z,7.25
2018-12-10T05:49:48.887Z,7.15
2018-12-10T05:50:29.744Z,7.29
2018-12-10T05:51:10.762Z,7.2
2018-12-10T05:51:51.797Z,7.28
2018-12-10T05:52:32.349Z,7.25
2018-12-10T05:53:12.911Z,7.18
2018-12-10T05:53:54.229Z,7.21
2018-12-10T05:54:35.195Z,7.18
2018-12-10T05:55:15.947Z,7.18
2018-12-10T05:55:56.749Z,7.17
2018-12-10T05:56:37.811Z,7.2
2018-12-10T05:57:18.482Z,7.18
2018-12-10T05:57:59.058Z,7.24
2018-12-10T05:58:39.625Z,7.2
2018-12-10T05:59:20.199Z,7.18
2018-12-10T06:00:00.783Z,7.21
2018-12-10T06:00:41.348Z,7.18
2018-12-10T06:01:21.903Z,7.18
2018-12-10T06:02:02.917Z,7.17
2018-12-10T06:02:43.237Z,7.15
2018-12-10T06:03:23.805Z,7.11
2018-12-10T06:04:04.356Z,7.14
2018-12-10T06:04:44.907Z,7.15
2018-12-10T06:05:25.476Z,7.15
2018-12-10T06:06:06.032Z,7.15
2018-12-10T06:06:46.583Z,7.18
2018-12-10T06:07:27.133Z,7.18
2018-12-10T06:08:07.720Z,7.18
2018-12-10T06:08:48.263Z,7.17
2018-12-10T06:09:28.834Z,7.14
2018-12-10T06:10:09.435Z,7.17
2018-12-10T06:10:50.016Z,7.11
2018-12-10T06:11:30.570Z,7.14
2018-12-10T06:12:11.128Z,7.18
2018-12-10T06:12:51.690Z,7.15
2018-12-10T06:13:32.246Z,7.18
2018-12-10T06:14:12.807Z,7.14
2018-12-10T06:14:53.362Z,7.07
2018-12-10T06:15:33.912Z,7.07
2018-12-10T06:16:14.528Z,7.06
2018-12-10T06:16:55.078Z,7.02
2018-12-10T06:17:35.643Z,7.11
2018-12-10T06:18:16.230Z,7.05
2018-12-10T06:18:56.779Z,7.07
2018-12-10T06:19:37.342Z,7.06
2018-12-10T06:20:17.914Z,7.1
2018-12-10T06:20:58.507Z,7.1
2018-12-10T06:21:39.050Z,7.13
2018-12-10T06:22:19.751Z,7.13
2018-12-10T06:23:00.319Z,7.17
2018-12-10T06:23:40.883Z,7.18
2018-12-10T06:24:21.461Z,7.15
2018-12-10T06:25:02.013Z,7.13
2018-12-10T06:25:42.565Z,7.06
2018-12-10T06:26:23.112Z,7.05
2018-12-10T06:27:03.674Z,7.03
2018-12-10T06:27:44.238Z,7
2018-12-10T06:28:24.805Z,7.06
2018-12-10T06:29:05.352Z,7.06
2018-12-10T06:29:45.896Z,7.07
2018-12-10T06:30:26.452Z,6.99
2018-12-10T06:31:07.001Z,7.11
2018-12-10T06:31:47.574Z,7.06
2018-12-10T06:32:28.144Z,7
2018-12-10T06:33:08.711Z,7.06
2018-12-10T06:33:49.285Z,6.96
2018-12-10T06:34:29.839Z,7.03
2018-12-10T06:35:10.441Z,6.96
2018-12-10T06:35:50.995Z,7.05
2018-12-10T06:36:31.543Z,6.99
2018-12-10T06:37:12.120Z,7
2018-12-10T06:37:52.685Z,7.05
2018-12-10T06:38:33.263Z,7.17
2018-12-10T06:39:13.849Z,7.14
2018-12-10T06:39:54.423Z,7.24
2018-12-10T06:40:34.975Z,7.32
2018-12-10T06:41:15.521Z,7.31
2018-12-10T06:41:56.083Z,7.36
2018-12-10T06:42:36.882Z,7.5
2018-12-10T06:43:17.461Z,7.61
2018-12-10T06:43:58.057Z,7.76
2018-12-10T06:44:38.611Z,7.76
2018-12-10T06:45:19.206Z,7.76
2018-12-10T06:45:59.777Z,7.75
2018-12-10T06:46:40.333Z,7.83
2018-12-10T06:47:20.902Z,7.91
2018-12-10T06:48:01.464Z,8
2018-12-10T06:48:42.028Z,8.03
2018-12-10T06:49:22.586Z,8.16
2018-12-10T06:50:03.145Z,8.23
2018-12-10T06:50:43.722Z,8.23
2018-12-10T06:51:24.301Z,8.18
2018-12-10T06:52:04.860Z,8.31
2018-12-10T06:52:45.444Z,8.34
2018-12-10T06:53:26.009Z,8.37
2018-12-10T06:54:06.576Z,8.41
2018-12-10T06:54:47.129Z,8.56
2018-12-10T06:55:27.701Z,8.64
2018-12-10T06:56:08.324Z,8.66
2018-12-10T06:56:48.897Z,8.61
2018-12-10T06:57:29.459Z,8.63
2018-12-10T06:58:10.005Z,8.53
2018-12-10T06:58:50.583Z,8.37
2018-12-10T06:59:31.160Z,8.44
2018-12-10T07:00:11.729Z,8.33
2018-12-10T07:00:52.310Z,8.27
2018-12-10T07:01:32.866Z,8.16
2018-12-10T07:02:13.428Z,8
2018-12-10T07:02:53.985Z,7.9
2018-12-10T07:03:34.567Z,7.77
2018-12-10T07:04:15.132Z,7.7
2018-12-10T07:04:55.691Z,7.73
2018-12-10T07:05:36.335Z,7.6
2018-12-10T07:06:16.916Z,7.63
2018-12-10T07:06:57.480Z,7.66
2018-12-10T07:07:38.037Z,7.57
2018-12-10T07:08:18.622Z,7.48
2018-12-10T07:08:59.196Z,7.56
2018-12-10T07:09:39.750Z,7.42
2018-12-10T07:10:20.347Z,7.35
2018-12-10T07:11:00.912Z,7.36
2018-12-10T07:11:41.480Z,7.32
2018-12-10T07:12:22.047Z,7.33
2018-12-10T07:13:02.646Z,7.24
2018-12-10T07:13:43.205Z,7.2
2018-12-10T07:14:23.762Z,7.25
2018-12-10T07:15:04.399Z,7.21
2018-12-10T07:15:44.917Z,7.24
2018-12-10T07:16:25.484Z,7.15
2018-12-10T07:17:06.051Z,7.15
2018-12-10T07:17:46.680Z,7.21
2018-12-10T07:18:27.236Z,7.17
2018-12-10T07:19:07.968Z,7.17
2018-12-10T07:19:48.543Z,7.03
2018-12-10T07:20:29.088Z,7.06
2018-12-10T07:21:09.661Z,7.03
2018-12-10T07:21:50.216Z,6.96
2018-12-10T07:22:30.774Z,7
2018-12-10T07:23:11.363Z,7
2018-12-10T07:23:51.925Z,6.93
2018-12-10T07:24:32.488Z,7.03
2018-12-10T07:25:13.053Z,6.96
2018-12-10T07:25:53.614Z,7
2018-12-10T07:26:34.166Z,7.1
2018-12-10T07:27:14.712Z,7.1
2018-12-10T07:27:55.279Z,6.99
2018-12-10T07:28:37.813Z,6.97
2018-12-10T07:29:16.404Z,7.02
2018-12-10T07:29:56.967Z,7
2018-12-10T07:30:41.351Z,6.96
2018-12-10T07:31:18.137Z,6.96
2018-12-10T07:31:58.809Z,6.93
2018-12-10T07:32:39.282Z,6.88
2018-12-10T07:33:19.842Z,6.96
2018-12-10T07:34:00.397Z,6.92
2018-12-10T07:34:41.435Z,7.05
2018-12-10T07:35:21.525Z,6.96
2018-12-10T07:36:02.091Z,6.95
2018-12-10T07:36:42.650Z,7.05
2018-12-10T07:37:23.227Z,7
2018-12-10T07:38:03.785Z,7.07
2018-12-10T07:38:44.349Z,7.03
2018-12-10T07:39:24.898Z,7.03
2018-12-10T07:40:06.599Z,7
2018-12-10T07:40:46.077Z,6.97
2018-12-10T07:41:26.737Z,7.03
2018-12-10T07:42:07.333Z,7.05
2018-12-10T07:42:47.926Z,6.97
2018-12-10T07:43:28.488Z,6.96
2018-12-10T07:44:09.070Z,6.99
2018-12-10T07:44:49.672Z,7
2018-12-10T07:45:30.254Z,6.96
2018-12-10T07:46:10.843Z,7.06
2018-12-10T07:46:51.392Z,7.06
2018-12-10T07:47:31.948Z,7.05
2018-12-10T07:48:12.592Z,7.07
2018-12-10T07:48:53.152Z,7.1
2018-12-10T07:49:33.716Z,7.05
2018-12-10T07:50:14.286Z,7.11
2018-12-10T07:50:54.849Z,7.03
2018-12-10T07:51:35.439Z,7.05
2018-12-10T07:52:15.980Z,7.1
2018-12-10T07:52:56.588Z,7.07
2018-12-10T07:53:37.121Z,7.13
2018-12-10T07:54:17.676Z,7.14
2018-12-10T07:54:58.237Z,7.13
2018-12-10T07:55:38.818Z,7.13
2018-12-10T07:56:19.375Z,7.21
2018-12-10T07:56:59.939Z,7.1
2018-12-10T07:57:40.506Z,7.06
2018-12-10T07:58:21.063Z,7.14
2018-12-10T07:59:01.679Z,7.1
2018-12-10T07:59:42.302Z,7.05
2018-12-10T08:00:22.871Z,7
2018-12-10T08:01:03.428Z,7.02
2018-12-10T08:01:43.983Z,6.88
2018-12-10T08:02:24.560Z,6.93
2018-12-10T08:03:05.115Z,6.95
2018-12-10T08:03:45.662Z,6.93
2018-12-10T08:04:26.298Z,6.88
2018-12-10T08:05:12.216Z,6.82
2018-12-10T08:05:47.519Z,6.89
2018-12-10T08:06:28.075Z,6.92
2018-12-10T08:07:08.627Z,6.88
2018-12-10T08:07:49.188Z,6.85
2018-12-10T08:08:29.742Z,6.87
2018-12-10T08:09:10.290Z,6.95
2018-12-10T08:09:50.866Z,6.88
2018-12-10T08:10:31.437Z,6.88
2018-12-10T08:11:11.998Z,6.88
2018-12-10T08:11:52.549Z,6.84
2018-12-10T08:12:33.108Z,6.88
2018-12-10T08:13:13.673Z,6.84
2018-12-10T08:13:54.222Z,6.85
2018-12-10T08:14:34.793Z,6.84
2018-12-10T08:15:15.387Z,6.82
2018-12-10T08:15:55.952Z,6.88
2018-12-10T08:16:36.513Z,6.85
2018-12-10T08:17:17.072Z,6.81
2018-12-10T08:17:57.737Z,6.87
2018-12-10T08:18:38.281Z,6.87
2018-12-10T08:19:18.844Z,6.82
2018-12-10T08:19:59.386Z,6.87
2018-12-10T08:20:39.949Z,6.75
2018-12-10T08:21:20.511Z,6.74
2018-12-10T08:22:01.095Z,6.78
2018-12-10T08:22:41.658Z,6.79
2018-12-10T08:23:22.219Z,6.89
2018-12-10T08:24:02.778Z,6.79
2018-12-10T08:24:43.319Z,6.87
2018-12-10T08:25:23.879Z,6.82
2018-12-10T08:26:04.442Z,6.78
2018-12-10T08:26:45.033Z,6.84
2018-12-10T08:27:25.612Z,6.82
2018-12-10T08:28:06.154Z,6.93
2018-12-10T08:28:46.732Z,6.87
2018-12-10T08:29:27.295Z,6.88
2018-12-10T08:30:07.857Z,6.85
2018-12-10T08:30:48.445Z,6.88
2018-12-10T08:31:29.019Z,6.85
2018-12-10T08:32:09.687Z,6.88
2018-12-10T08:32:50.241Z,6.93
2018-12-10T08:33:30.808Z,6.89
2018-12-10T08:34:11.406Z,6.84
2018-12-10T08:34:51.973Z,6.85
2018-12-10T08:35:40.680Z,6.95
2018-12-10T08:36:13.078Z,6.89
2018-12-10T08:36:55.631Z,6.92
2018-12-10T08:37:34.195Z,7
2018-12-10T08:38:14.761Z,6.89
2018-12-10T08:38:55.313Z,6.95
2018-12-10T08:39:35.863Z,7
2018-12-10T08:40:16.497Z,6.96
2018-12-10T08:40:57.027Z,7.05
2018-12-10T08:41:37.585Z,7
2018-12-10T08:42:18.144Z,6.99
2018-12-10T08:42:58.735Z,6.95
2018-12-10T08:43:39.302Z,6.95
2018-12-10T08:44:19.851Z,7
2018-12-10T08:45:00.417Z,7.06
2018-12-10T08:45:40.972Z,7.11
2018-12-10T08:46:21.535Z,7.17
2018-12-10T08:47:02.096Z,7.24
2018-12-10T08:47:42.698Z,7.18
2018-12-10T08:48:23.329Z,7.29
2018-12-10T08:49:03.843Z,7.31
2018-12-10T08:49:44.412Z,7.29
2018-12-10T08:50:25.005Z,7.35
2018-12-10T08:51:05.588Z,7.33
2018-12-10T08:51:46.116Z,7.31
2018-12-10T08:52:26.659Z,7.35
2018-12-10T08:53:07.218Z,7.28
2018-12-10T08:53:47.972Z,7.35
2018-12-10T08:54:28.322Z,7.35
2018-12-10T08:55:08.893Z,7.47
2018-12-10T08:55:49.455Z,7.53
2018-12-10T08:56:30.099Z,7.6
2018-12-10T08:57:10.819Z,7.58
2018-12-10T08:57:51.749Z,7.6
2018-12-10T08:58:32.272Z,7.67
2018-12-10T08:59:12.849Z,7.56
2018-12-10T08:59:53.569Z,7.63
2018-12-10T09:00:34.197Z,7.56
2018-12-10T09:01:15.164Z,7.54
2018-12-10T09:01:55.739Z,7.43
2018-12-10T09:02:36.552Z,7.43
2018-12-10T09:03:17.251Z,7.38